首页
METAR-TAF:

METAR-TAF

机场 :

杰克逊维尔, 佛罗里达州, 美国

纬度: 30-13-07N, 经度: 081-52-36W, 海拔: 25米

当前天气观测

该预报发布于12分钟前的00:50 UTC
风速8节,风向东转东北
温度 24°C
湿度 94%
气压 1013 hPa
能見度: 11.3公里
多云层高于900英尺

METAR: KVQQ 270050Z 06008KT 7SM BKN009 24/23 A2990

时间: 21:02 (01:02 UTC)

预报

该预报发布于1小时和32分钟前的23:30 UTC
预报有效从27日的 00点(UTC)到 27日的 24点(UTC)
风速9节,风向东北
能見度: 10公里
多云层高于800英尺
多云层高于1500英尺
短暂存在
从 27日的 00点(UTC)到 27日的 02点(UTC)
能見度: 4.8公里
小雨, 轻雾
从 27日的 0700点(UTC)
风速2节,风向多变
能見度: 10公里
多云层高于800英尺
多云层高于2300英尺
从 27日的 1500点(UTC)
风速4节,风向多变
能見度: 10公里
多云层高于1500英尺, 积雨云.
小雨, 附近有雷暴

TAF: KVQQ 262330Z 2700/2724 05009KT P6SM BKN008 BKN015 TEMPO 2700/2702 3SM -RA BR FM270700 VRB02KT P6SM BKN008 BKN023 FM271500 VRB04KT P6SM -RA VCTS BKN015CB

超过4000个机场的气象观测和天气预报(METAR&TAF报告)。

可查询的气象台以黄色和红色小点在地图上表示。

将鼠标移到小点上方,可查看气象台名称。

然后点击查看天气观测和预报。

如需切换地图:点击带黑十字的绿色按钮放大地图;点击带横线的绿色按钮缩小地图;或者点击绿色箭头查看邻近地区的地图。


METAR-TAF: